sensor_id;sensor_type;location;lat;lon;timestamp;P1;durP1;ratioP1;P2;durP2;ratioP2
57663;SDS011;43493;53.098;6.064;2023-03-21T00:00:42;111.87;;;30.73;;
57663;SDS011;43493;53.098;6.064;2023-03-21T00:03:08;84.80;;;28.03;;
57663;SDS011;43493;53.098;6.064;2023-03-21T00:05:41;132.10;;;32.97;;
57663;SDS011;43493;53.098;6.064;2023-03-21T00:08:09;102.47;;;29.42;;
57663;SDS011;43493;53.098;6.064;2023-03-21T00:10:35;99.03;;;29.73;;
57663;SDS011;43493;53.098;6.064;2023-03-21T00:13:01;113.13;;;30.77;;
57663;SDS011;43493;53.098;6.064;2023-03-21T00:15:27;116.73;;;31.33;;
57663;SDS011;43493;53.098;6.064;2023-03-21T00:17:54;130.97;;;32.37;;
57663;SDS011;43493;53.098;6.064;2023-03-21T00:20:35;95.03;;;29.37;;
57663;SDS011;43493;53.098;6.064;2023-03-21T00:23:02;117.87;;;31.03;;
57663;SDS011;43493;53.098;6.064;2023-03-21T00:25:28;92.23;;;30.13;;
57663;SDS011;43493;53.098;6.064;2023-03-21T00:27:56;91.30;;;28.90;;
57663;SDS011;43493;53.098;6.064;2023-03-21T00:30:21;91.97;;;28.17;;
57663;SDS011;43493;53.098;6.064;2023-03-21T00:32:48;94.23;;;30.23;;
57663;SDS011;43493;53.098;6.064;2023-03-21T00:35:14;69.60;;;26.20;;
57663;SDS011;43493;53.098;6.064;2023-03-21T00:37:40;73.40;;;25.63;;
57663;SDS011;43493;53.098;6.064;2023-03-21T00:40:07;57.07;;;23.83;;
57663;SDS011;43493;53.098;6.064;2023-03-21T00:42:34;43.33;;;20.77;;
57663;SDS011;43493;53.098;6.064;2023-03-21T00:45:01;50.00;;;21.33;;
57663;SDS011;43493;53.098;6.064;2023-03-21T00:47:28;59.97;;;23.60;;
57663;SDS011;43493;53.098;6.064;2023-03-21T00:49:53;58.67;;;24.57;;
57663;SDS011;43493;53.098;6.064;2023-03-21T00:52:20;58.17;;;22.83;;
57663;SDS011;43493;53.098;6.064;2023-03-21T00:54:46;52.53;;;22.00;;
57663;SDS011;43493;53.098;6.064;2023-03-21T00:57:12;47.10;;;21.00;;
57663;SDS011;43493;53.098;6.064;2023-03-21T00:59:38;67.07;;;24.63;;
57663;SDS011;43493;53.098;6.064;2023-03-21T01:02:03;68.03;;;24.97;;
57663;SDS011;43493;53.098;6.064;2023-03-21T01:04:31;67.80;;;26.47;;
57663;SDS011;43493;53.098;6.064;2023-03-21T01:06:58;72.90;;;26.70;;
57663;SDS011;43493;53.098;6.064;2023-03-21T01:09:24;68.87;;;26.50;;
57663;SDS011;43493;53.098;6.064;2023-03-21T01:11:51;70.93;;;26.70;;
57663;SDS011;43493;53.098;6.064;2023-03-21T01:14:17;85.10;;;27.40;;
57663;SDS011;43493;53.098;6.064;2023-03-21T01:16:45;69.47;;;26.37;;
57663;SDS011;43493;53.098;6.064;2023-03-21T01:19:15;59.80;;;24.87;;
57663;SDS011;43493;53.098;6.064;2023-03-21T01:21:42;63.77;;;25.97;;
57663;SDS011;43493;53.098;6.064;2023-03-21T01:24:08;53.13;;;23.10;;
57663;SDS011;43493;53.098;6.064;2023-03-21T01:26:34;51.50;;;23.53;;
57663;SDS011;43493;53.098;6.064;2023-03-21T01:29:02;52.17;;;22.67;;
57663;SDS011;43493;53.098;6.064;2023-03-21T01:31:28;47.30;;;21.43;;
57663;SDS011;43493;53.098;6.064;2023-03-21T01:33:54;50.03;;;23.23;;
57663;SDS011;43493;53.098;6.064;2023-03-21T01:36:21;50.80;;;21.97;;
57663;SDS011;43493;53.098;6.064;2023-03-21T01:38:49;39.47;;;20.23;;
57663;SDS011;43493;53.098;6.064;2023-03-21T01:41:34;38.30;;;20.57;;
57663;SDS011;43493;53.098;6.064;2023-03-21T01:44:02;42.67;;;22.07;;
57663;SDS011;43493;53.098;6.064;2023-03-21T01:46:34;37.80;;;19.77;;
57663;SDS011;43493;53.098;6.064;2023-03-21T01:51:35;38.40;;;19.57;;
57663;SDS011;43493;53.098;6.064;2023-03-21T01:54:05;38.67;;;19.40;;
57663;SDS011;43493;53.098;6.064;2023-03-21T01:56:37;35.23;;;18.93;;
57663;SDS011;43493;53.098;6.064;2023-03-21T01:59:04;30.23;;;17.80;;
57663;SDS011;43493;53.098;6.064;2023-03-21T02:01:33;30.90;;;17.97;;
57663;SDS011;43493;53.098;6.064;2023-03-21T02:04:02;30.67;;;18.57;;
57663;SDS011;43493;53.098;6.064;2023-03-21T02:06:31;26.87;;;16.53;;
57663;SDS011;43493;53.098;6.064;2023-03-21T02:08:58;27.47;;;16.37;;
57663;SDS011;43493;53.098;6.064;2023-03-21T02:11:28;29.83;;;16.37;;
57663;SDS011;43493;53.098;6.064;2023-03-21T02:13:56;25.50;;;16.17;;
57663;SDS011;43493;53.098;6.064;2023-03-21T02:24:44;19.53;;;13.70;;
57663;SDS011;43493;53.098;6.064;2023-03-21T02:27:30;19.13;;;13.37;;
57663;SDS011;43493;53.098;6.064;2023-03-21T02:38:37;21.93;;;15.53;;
57663;SDS011;43493;53.098;6.064;2023-03-21T02:43:55;23.45;;;16.05;;
57663;SDS011;43493;53.098;6.064;2023-03-21T02:47:11;19.85;;;14.73;;
57663;SDS011;43493;53.098;6.064;2023-03-21T02:49:30;23.67;;;16.43;;
57663;SDS011;43493;53.098;6.064;2023-03-21T02:52:06;23.57;;;16.40;;
57663;SDS011;43493;53.098;6.064;2023-03-21T02:54:36;27.23;;;17.53;;
57663;SDS011;43493;53.098;6.064;2023-03-21T02:57:03;28.07;;;18.00;;
57663;SDS011;43493;53.098;6.064;2023-03-21T02:59:31;28.20;;;17.97;;
57663;SDS011;43493;53.098;6.064;2023-03-21T03:01:57;25.63;;;17.73;;
57663;SDS011;43493;53.098;6.064;2023-03-21T03:04:25;31.33;;;19.53;;
57663;SDS011;43493;53.098;6.064;2023-03-21T03:12:25;32.70;;;19.60;;
57663;SDS011;43493;53.098;6.064;2023-03-21T03:28:32;31.83;;;19.70;;
57663;SDS011;43493;53.098;6.064;2023-03-21T03:31:01;31.43;;;20.27;;
57663;SDS011;43493;53.098;6.064;2023-03-21T03:33:28;28.97;;;18.23;;
57663;SDS011;43493;53.098;6.064;2023-03-21T03:35:55;26.77;;;17.37;;
57663;SDS011;43493;53.098;6.064;2023-03-21T03:38:23;34.50;;;18.73;;
57663;SDS011;43493;53.098;6.064;2023-03-21T03:40:54;29.60;;;17.70;;
57663;SDS011;43493;53.098;6.064;2023-03-21T03:43:29;28.87;;;17.03;;
57663;SDS011;43493;53.098;6.064;2023-03-21T03:46:04;31.70;;;18.13;;
57663;SDS011;43493;53.098;6.064;2023-03-21T03:48:43;37.20;;;20.20;;
57663;SDS011;43493;53.098;6.064;2023-03-21T03:51:35;33.67;;;18.97;;
57663;SDS011;43493;53.098;6.064;2023-03-21T03:54:29;37.73;;;19.27;;
57663;SDS011;43493;53.098;6.064;2023-03-21T03:59:32;32.67;;;16.97;;
57663;SDS011;43493;53.098;6.064;2023-03-21T04:02:00;41.13;;;19.13;;
57663;SDS011;43493;53.098;6.064;2023-03-21T04:04:26;32.77;;;17.93;;
57663;SDS011;43493;53.098;6.064;2023-03-21T04:06:52;34.47;;;16.17;;
57663;SDS011;43493;53.098;6.064;2023-03-21T04:09:18;50.30;;;19.40;;
57663;SDS011;43493;53.098;6.064;2023-03-21T04:11:44;48.93;;;19.30;;
57663;SDS011;43493;53.098;6.064;2023-03-21T04:14:10;42.60;;;18.37;;
57663;SDS011;43493;53.098;6.064;2023-03-21T04:16:35;41.80;;;18.23;;
57663;SDS011;43493;53.098;6.064;2023-03-21T04:19:01;44.70;;;19.03;;
57663;SDS011;43493;53.098;6.064;2023-03-21T04:21:27;43.97;;;17.97;;
57663;SDS011;43493;53.098;6.064;2023-03-21T04:23:54;44.63;;;19.10;;
57663;SDS011;43493;53.098;6.064;2023-03-21T04:26:20;40.07;;;17.90;;
57663;SDS011;43493;53.098;6.064;2023-03-21T04:28:47;42.10;;;19.93;;
57663;SDS011;43493;53.098;6.064;2023-03-21T04:31:13;38.83;;;18.53;;
57663;SDS011;43493;53.098;6.064;2023-03-21T04:33:41;47.73;;;21.20;;
57663;SDS011;43493;53.098;6.064;2023-03-21T04:36:08;41.70;;;20.00;;
57663;SDS011;43493;53.098;6.064;2023-03-21T04:38:50;43.67;;;21.30;;
57663;SDS011;43493;53.098;6.064;2023-03-21T04:41:16;31.87;;;16.73;;
57663;SDS011;43493;53.098;6.064;2023-03-21T04:43:43;44.23;;;22.40;;
57663;SDS011;43493;53.098;6.064;2023-03-21T04:46:09;41.17;;;20.43;;
57663;SDS011;43493;53.098;6.064;2023-03-21T04:48:35;41.67;;;21.20;;
57663;SDS011;43493;53.098;6.064;2023-03-21T04:51:01;36.93;;;20.40;;
57663;SDS011;43493;53.098;6.064;2023-03-21T04:53:27;41.03;;;21.27;;
57663;SDS011;43493;53.098;6.064;2023-03-21T04:55:53;38.27;;;21.47;;
57663;SDS011;43493;53.098;6.064;2023-03-21T04:58:19;35.67;;;21.17;;
57663;SDS011;43493;53.098;6.064;2023-03-21T05:00:45;37.27;;;20.90;;
57663;SDS011;43493;53.098;6.064;2023-03-21T05:03:11;35.70;;;21.13;;
57663;SDS011;43493;53.098;6.064;2023-03-21T05:05:43;31.27;;;19.80;;
57663;SDS011;43493;53.098;6.064;2023-03-21T05:08:10;36.10;;;21.30;;
57663;SDS011;43493;53.098;6.064;2023-03-21T05:10:37;34.37;;;20.87;;
57663;SDS011;43493;53.098;6.064;2023-03-21T05:13:03;34.67;;;20.93;;
57663;SDS011;43493;53.098;6.064;2023-03-21T05:15:28;37.23;;;22.17;;
57663;SDS011;43493;53.098;6.064;2023-03-21T05:17:55;32.93;;;20.93;;
57663;SDS011;43493;53.098;6.064;2023-03-21T05:20:23;35.67;;;20.73;;
57663;SDS011;43493;53.098;6.064;2023-03-21T05:22:49;35.37;;;20.40;;
57663;SDS011;43493;53.098;6.064;2023-03-21T05:25:16;31.90;;;20.70;;
57663;SDS011;43493;53.098;6.064;2023-03-21T05:27:59;37.33;;;20.67;;
57663;SDS011;43493;53.098;6.064;2023-03-21T05:30:26;36.00;;;20.63;;
57663;SDS011;43493;53.098;6.064;2023-03-21T05:32:52;31.97;;;19.47;;
57663;SDS011;43493;53.098;6.064;2023-03-21T05:35:18;29.23;;;18.43;;
57663;SDS011;43493;53.098;6.064;2023-03-21T05:37:44;30.43;;;18.87;;
57663;SDS011;43493;53.098;6.064;2023-03-21T05:40:10;32.70;;;19.63;;
57663;SDS011;43493;53.098;6.064;2023-03-21T05:42:36;28.10;;;18.13;;
57663;SDS011;43493;53.098;6.064;2023-03-21T05:45:02;32.17;;;18.80;;
57663;SDS011;43493;53.098;6.064;2023-03-21T05:47:28;32.67;;;19.03;;
57663;SDS011;43493;53.098;6.064;2023-03-21T05:49:54;33.50;;;20.33;;
57663;SDS011;43493;53.098;6.064;2023-03-21T05:52:20;37.67;;;21.87;;
57663;SDS011;43493;53.098;6.064;2023-03-21T05:54:46;33.37;;;18.63;;
57663;SDS011;43493;53.098;6.064;2023-03-21T05:57:11;33.13;;;19.40;;
57663;SDS011;43493;53.098;6.064;2023-03-21T05:59:37;35.47;;;19.63;;
57663;SDS011;43493;53.098;6.064;2023-03-21T06:02:06;35.03;;;19.53;;
57663;SDS011;43493;53.098;6.064;2023-03-21T06:04:32;38.00;;;20.33;;
57663;SDS011;43493;53.098;6.064;2023-03-21T06:06:58;35.60;;;19.97;;
57663;SDS011;43493;53.098;6.064;2023-03-21T06:09:24;35.30;;;19.43;;
57663;SDS011;43493;53.098;6.064;2023-03-21T06:11:51;41.80;;;21.30;;
57663;SDS011;43493;53.098;6.064;2023-03-21T06:14:18;33.70;;;19.60;;
57663;SDS011;43493;53.098;6.064;2023-03-21T06:16:44;39.27;;;21.67;;
57663;SDS011;43493;53.098;6.064;2023-03-21T06:19:10;38.73;;;21.97;;
57663;SDS011;43493;53.098;6.064;2023-03-21T06:21:36;37.93;;;21.17;;
57663;SDS011;43493;53.098;6.064;2023-03-21T06:24:02;35.57;;;20.07;;
57663;SDS011;43493;53.098;6.064;2023-03-21T06:26:28;35.77;;;20.00;;
57663;SDS011;43493;53.098;6.064;2023-03-21T06:28:54;39.20;;;22.17;;
57663;SDS011;43493;53.098;6.064;2023-03-21T06:31:20;39.53;;;22.00;;
57663;SDS011;43493;53.098;6.064;2023-03-21T06:33:49;38.60;;;21.57;;
57663;SDS011;43493;53.098;6.064;2023-03-21T06:36:16;34.67;;;20.00;;
57663;SDS011;43493;53.098;6.064;2023-03-21T06:38:42;37.00;;;20.77;;
57663;SDS011;43493;53.098;6.064;2023-03-21T06:41:08;36.97;;;21.73;;
57663;SDS011;43493;53.098;6.064;2023-03-21T06:43:34;31.97;;;19.30;;
57663;SDS011;43493;53.098;6.064;2023-03-21T06:46:00;34.23;;;20.53;;
57663;SDS011;43493;53.098;6.064;2023-03-21T06:48:26;31.13;;;18.53;;
57663;SDS011;43493;53.098;6.064;2023-03-21T06:50:53;29.10;;;18.43;;
57663;SDS011;43493;53.098;6.064;2023-03-21T06:53:19;31.13;;;19.17;;
57663;SDS011;43493;53.098;6.064;2023-03-21T06:55:49;31.27;;;18.20;;
57663;SDS011;43493;53.098;6.064;2023-03-21T06:58:15;32.33;;;18.90;;
57663;SDS011;43493;53.098;6.064;2023-03-21T07:00:41;30.87;;;19.07;;
57663;SDS011;43493;53.098;6.064;2023-03-21T07:03:08;28.23;;;17.80;;
57663;SDS011;43493;53.098;6.064;2023-03-21T07:05:35;26.60;;;17.33;;
57663;SDS011;43493;53.098;6.064;2023-03-21T07:08:01;26.93;;;17.30;;
57663;SDS011;43493;53.098;6.064;2023-03-21T07:10:27;27.77;;;18.20;;
57663;SDS011;43493;53.098;6.064;2023-03-21T07:12:53;26.60;;;17.93;;
57663;SDS011;43493;53.098;6.064;2023-03-21T07:15:19;28.53;;;17.83;;
57663;SDS011;43493;53.098;6.064;2023-03-21T07:17:45;27.73;;;17.43;;
57663;SDS011;43493;53.098;6.064;2023-03-21T07:20:11;23.57;;;16.30;;
57663;SDS011;43493;53.098;6.064;2023-03-21T07:22:38;26.37;;;18.27;;
57663;SDS011;43493;53.098;6.064;2023-03-21T07:25:04;24.47;;;17.00;;
57663;SDS011;43493;53.098;6.064;2023-03-21T07:27:32;24.63;;;16.73;;
57663;SDS011;43493;53.098;6.064;2023-03-21T07:29:57;22.07;;;15.03;;
57663;SDS011;43493;53.098;6.064;2023-03-21T07:32:23;24.00;;;16.27;;
57663;SDS011;43493;53.098;6.064;2023-03-21T07:34:54;21.50;;;15.47;;
57663;SDS011;43493;53.098;6.064;2023-03-21T07:37:20;21.83;;;15.67;;
57663;SDS011;43493;53.098;6.064;2023-03-21T07:39:45;21.80;;;15.70;;
57663;SDS011;43493;53.098;6.064;2023-03-21T07:42:11;19.67;;;15.47;;
57663;SDS011;43493;53.098;6.064;2023-03-21T07:44:37;18.47;;;14.27;;
57663;SDS011;43493;53.098;6.064;2023-03-21T07:47:03;21.00;;;15.10;;
57663;SDS011;43493;53.098;6.064;2023-03-21T07:49:30;22.10;;;15.70;;
57663;SDS011;43493;53.098;6.064;2023-03-21T07:51:56;22.00;;;15.67;;
57663;SDS011;43493;53.098;6.064;2023-03-21T07:54:23;24.17;;;16.67;;
57663;SDS011;43493;53.098;6.064;2023-03-21T07:56:49;22.40;;;16.13;;
57663;SDS011;43493;53.098;6.064;2023-03-21T07:59:15;23.60;;;16.13;;
57663;SDS011;43493;53.098;6.064;2023-03-21T08:01:41;21.27;;;15.33;;
57663;SDS011;43493;53.098;6.064;2023-03-21T08:04:06;18.47;;;13.77;;
57663;SDS011;43493;53.098;6.064;2023-03-21T08:06:32;20.43;;;13.90;;
57663;SDS011;43493;53.098;6.064;2023-03-21T08:08:58;24.27;;;17.57;;
57663;SDS011;43493;53.098;6.064;2023-03-21T08:11:24;22.93;;;15.83;;
57663;SDS011;43493;53.098;6.064;2023-03-21T08:13:50;19.73;;;13.80;;
57663;SDS011;43493;53.098;6.064;2023-03-21T08:16:16;25.03;;;15.93;;
57663;SDS011;43493;53.098;6.064;2023-03-21T08:18:42;24.67;;;16.83;;
57663;SDS011;43493;53.098;6.064;2023-03-21T08:21:08;24.43;;;16.90;;
57663;SDS011;43493;53.098;6.064;2023-03-21T08:23:33;21.07;;;15.43;;
57663;SDS011;43493;53.098;6.064;2023-03-21T08:26:00;23.87;;;16.13;;
57663;SDS011;43493;53.098;6.064;2023-03-21T08:28:26;25.00;;;17.67;;
57663;SDS011;43493;53.098;6.064;2023-03-21T08:30:52;22.77;;;17.17;;
57663;SDS011;43493;53.098;6.064;2023-03-21T08:33:18;26.30;;;17.83;;
57663;SDS011;43493;53.098;6.064;2023-03-21T08:35:45;25.17;;;16.17;;
57663;SDS011;43493;53.098;6.064;2023-03-21T08:38:11;27.27;;;19.17;;
57663;SDS011;43493;53.098;6.064;2023-03-21T08:40:37;23.80;;;17.10;;
57663;SDS011;43493;53.098;6.064;2023-03-21T08:43:03;26.10;;;16.43;;
57663;SDS011;43493;53.098;6.064;2023-03-21T08:45:30;29.13;;;19.17;;
57663;SDS011;43493;53.098;6.064;2023-03-21T08:47:56;28.17;;;19.13;;
57663;SDS011;43493;53.098;6.064;2023-03-21T08:50:22;26.50;;;19.50;;
57663;SDS011;43493;53.098;6.064;2023-03-21T08:52:51;31.63;;;22.30;;
57663;SDS011;43493;53.098;6.064;2023-03-21T08:55:18;32.50;;;22.80;;
57663;SDS011;43493;53.098;6.064;2023-03-21T08:57:44;30.30;;;20.10;;
57663;SDS011;43493;53.098;6.064;2023-03-21T09:00:11;32.73;;;22.40;;
57663;SDS011;43493;53.098;6.064;2023-03-21T09:02:39;29.53;;;20.90;;
57663;SDS011;43493;53.098;6.064;2023-03-21T09:05:14;27.87;;;17.17;;
57663;SDS011;43493;53.098;6.064;2023-03-21T09:07:41;27.10;;;19.37;;
57663;SDS011;43493;53.098;6.064;2023-03-21T09:10:08;29.70;;;19.63;;
57663;SDS011;43493;53.098;6.064;2023-03-21T09:12:36;28.47;;;21.07;;
57663;SDS011;43493;53.098;6.064;2023-03-21T09:15:03;33.93;;;21.63;;
57663;SDS011;43493;53.098;6.064;2023-03-21T09:17:29;33.87;;;23.63;;
57663;SDS011;43493;53.098;6.064;2023-03-21T09:19:58;30.20;;;21.30;;
57663;SDS011;43493;53.098;6.064;2023-03-21T09:22:25;30.73;;;21.83;;
57663;SDS011;43493;53.098;6.064;2023-03-21T09:24:52;31.17;;;22.30;;
57663;SDS011;43493;53.098;6.064;2023-03-21T09:27:18;33.03;;;22.90;;
57663;SDS011;43493;53.098;6.064;2023-03-21T09:29:49;34.27;;;23.80;;
57663;SDS011;43493;53.098;6.064;2023-03-21T09:32:16;34.87;;;24.20;;
57663;SDS011;43493;53.098;6.064;2023-03-21T09:34:45;40.27;;;25.17;;
57663;SDS011;43493;53.098;6.064;2023-03-21T09:37:12;32.30;;;24.33;;
57663;SDS011;43493;53.098;6.064;2023-03-21T09:39:38;34.97;;;24.47;;
57663;SDS011;43493;53.098;6.064;2023-03-21T09:44:59;34.00;;;22.10;;
57663;SDS011;43493;53.098;6.064;2023-03-21T09:47:52;30.47;;;21.90;;
57663;SDS011;43493;53.098;6.064;2023-03-21T09:50:30;34.93;;;20.67;;
57663;SDS011;43493;53.098;6.064;2023-03-21T09:53:02;30.47;;;18.57;;
57663;SDS011;43493;53.098;6.064;2023-03-21T09:55:37;35.77;;;21.17;;
57663;SDS011;43493;53.098;6.064;2023-03-21T10:01:17;34.63;;;20.02;;
57663;SDS011;43493;53.098;6.064;2023-03-21T10:03:51;32.60;;;19.80;;
57663;SDS011;43493;53.098;6.064;2023-03-21T10:06:20;27.90;;;18.43;;
57663;SDS011;43493;53.098;6.064;2023-03-21T10:11:48;30.33;;;19.97;;
57663;SDS011;43493;53.098;6.064;2023-03-21T10:14:24;27.00;;;18.27;;
57663;SDS011;43493;53.098;6.064;2023-03-21T10:16:54;28.05;;;17.50;;
57663;SDS011;43493;53.098;6.064;2023-03-21T10:19:27;27.15;;;17.70;;
57663;SDS011;43493;53.098;6.064;2023-03-21T10:21:52;27.27;;;17.77;;
57663;SDS011;43493;53.098;6.064;2023-03-21T10:24:20;26.70;;;16.80;;
57663;SDS011;43493;53.098;6.064;2023-03-21T10:26:49;26.20;;;16.47;;
57663;SDS011;43493;53.098;6.064;2023-03-21T10:29:17;26.73;;;15.63;;
57663;SDS011;43493;53.098;6.064;2023-03-21T10:31:46;25.23;;;15.30;;
57663;SDS011;43493;53.098;6.064;2023-03-21T10:34:17;23.33;;;15.27;;
57663;SDS011;43493;53.098;6.064;2023-03-21T10:36:57;21.13;;;14.10;;
57663;SDS011;43493;53.098;6.064;2023-03-21T10:39:26;22.40;;;14.53;;
57663;SDS011;43493;53.098;6.064;2023-03-21T10:42:03;20.10;;;13.93;;
57663;SDS011;43493;53.098;6.064;2023-03-21T10:44:30;21.77;;;14.23;;
57663;SDS011;43493;53.098;6.064;2023-03-21T10:47:07;19.13;;;13.07;;
57663;SDS011;43493;53.098;6.064;2023-03-21T10:49:37;20.90;;;13.67;;
57663;SDS011;43493;53.098;6.064;2023-03-21T10:52:04;22.33;;;13.40;;
57663;SDS011;43493;53.098;6.064;2023-03-21T10:54:33;21.07;;;12.67;;
57663;SDS011;43493;53.098;6.064;2023-03-21T10:57:09;18.17;;;11.57;;
57663;SDS011;43493;53.098;6.064;2023-03-21T10:59:55;17.77;;;11.80;;
57663;SDS011;43493;53.098;6.064;2023-03-21T11:02:25;16.85;;;11.13;;
57663;SDS011;43493;53.098;6.064;2023-03-21T11:04:55;17.30;;;10.40;;
57663;SDS011;43493;53.098;6.064;2023-03-21T11:07:22;18.90;;;11.50;;
57663;SDS011;43493;53.098;6.064;2023-03-21T11:09:57;18.83;;;12.17;;
57663;SDS011;43493;53.098;6.064;2023-03-21T11:12:28;17.30;;;11.57;;
57663;SDS011;43493;53.098;6.064;2023-03-21T11:15:13;16.73;;;10.95;;
57663;SDS011;43493;53.098;6.064;2023-03-21T11:17:54;17.30;;;11.32;;
57663;SDS011;43493;53.098;6.064;2023-03-21T11:20:20;21.40;;;11.80;;
57663;SDS011;43493;53.098;6.064;2023-03-21T11:22:46;19.67;;;12.63;;
57663;SDS011;43493;53.098;6.064;2023-03-21T11:25:34;20.93;;;12.57;;
57663;SDS011;43493;53.098;6.064;2023-03-21T11:28:07;17.60;;;11.80;;
57663;SDS011;43493;53.098;6.064;2023-03-21T11:30:47;17.03;;;10.80;;
57663;SDS011;43493;53.098;6.064;2023-03-21T11:33:15;15.90;;;10.30;;
57663;SDS011;43493;53.098;6.064;2023-03-21T11:35:43;17.97;;;10.70;;
57663;SDS011;43493;53.098;6.064;2023-03-21T11:38:42;16.37;;;9.93;;
57663;SDS011;43493;53.098;6.064;2023-03-21T11:41:08;20.63;;;11.37;;
57663;SDS011;43493;53.098;6.064;2023-03-21T11:43:50;18.33;;;11.30;;
57663;SDS011;43493;53.098;6.064;2023-03-21T11:46:21;17.50;;;11.30;;
57663;SDS011;43493;53.098;6.064;2023-03-21T11:48:48;19.50;;;10.90;;
57663;SDS011;43493;53.098;6.064;2023-03-21T11:57:02;18.97;;;11.17;;
57663;SDS011;43493;53.098;6.064;2023-03-21T12:05:25;18.70;;;10.47;;
57663;SDS011;43493;53.098;6.064;2023-03-21T12:15:30;16.57;;;9.63;;
57663;SDS011;43493;53.098;6.064;2023-03-21T12:29:25;21.30;;;9.83;;
57663;SDS011;43493;53.098;6.064;2023-03-21T12:35:05;19.17;;;10.27;;
57663;SDS011;43493;53.098;6.064;2023-03-21T12:44:10;18.63;;;9.45;;
57663;SDS011;43493;53.098;6.064;2023-03-21T12:52:15;18.60;;;10.03;;
57663;SDS011;43493;53.098;6.064;2023-03-21T12:57:41;20.07;;;10.13;;
57663;SDS011;43493;53.098;6.064;2023-03-21T13:00:18;17.07;;;10.87;;
57663;SDS011;43493;53.098;6.064;2023-03-21T13:02:47;16.90;;;10.70;;
57663;SDS011;43493;53.098;6.064;2023-03-21T13:08:04;17.87;;;10.13;;
57663;SDS011;43493;53.098;6.064;2023-03-21T13:10:36;17.00;;;9.80;;
57663;SDS011;43493;53.098;6.064;2023-03-21T13:20:49;15.63;;;10.63;;
57663;SDS011;43493;53.098;6.064;2023-03-21T13:23:20;19.03;;;11.13;;
57663;SDS011;43493;53.098;6.064;2023-03-21T13:25:47;19.63;;;11.20;;
57663;SDS011;43493;53.098;6.064;2023-03-21T13:28:37;16.33;;;10.57;;
57663;SDS011;43493;53.098;6.064;2023-03-21T13:31:16;16.73;;;11.40;;
57663;SDS011;43493;53.098;6.064;2023-03-21T13:33:44;19.73;;;11.53;;
57663;SDS011;43493;53.098;6.064;2023-03-21T13:36:21;17.93;;;12.17;;
57663;SDS011;43493;53.098;6.064;2023-03-21T13:38:53;16.63;;;11.60;;
57663;SDS011;43493;53.098;6.064;2023-03-21T13:41:31;18.47;;;11.73;;
57663;SDS011;43493;53.098;6.064;2023-03-21T14:05:05;17.27;;;12.20;;
57663;SDS011;43493;53.098;6.064;2023-03-21T14:07:41;20.20;;;11.70;;
57663;SDS011;43493;53.098;6.064;2023-03-21T14:10:27;19.27;;;12.30;;
57663;SDS011;43493;53.098;6.064;2023-03-21T14:12:57;17.87;;;11.27;;
57663;SDS011;43493;53.098;6.064;2023-03-21T14:18:04;19.83;;;12.33;;
57663;SDS011;43493;53.098;6.064;2023-03-21T14:20:32;18.20;;;12.30;;
57663;SDS011;43493;53.098;6.064;2023-03-21T14:23:03;17.17;;;12.00;;
57663;SDS011;43493;53.098;6.064;2023-03-21T14:25:34;18.70;;;12.77;;
57663;SDS011;43493;53.098;6.064;2023-03-21T14:28:03;16.00;;;10.83;;
57663;SDS011;43493;53.098;6.064;2023-03-21T14:30:36;17.13;;;11.57;;
57663;SDS011;43493;53.098;6.064;2023-03-21T14:33:15;18.20;;;11.90;;
57663;SDS011;43493;53.098;6.064;2023-03-21T14:35:51;17.90;;;12.00;;
57663;SDS011;43493;53.098;6.064;2023-03-21T14:38:23;16.47;;;11.77;;
57663;SDS011;43493;53.098;6.064;2023-03-21T14:40:53;19.50;;;11.60;;
57663;SDS011;43493;53.098;6.064;2023-03-21T14:43:20;23.97;;;12.27;;
57663;SDS011;43493;53.098;6.064;2023-03-21T14:45:52;18.33;;;11.93;;
57663;SDS011;43493;53.098;6.064;2023-03-21T14:48:20;18.83;;;11.80;;
57663;SDS011;43493;53.098;6.064;2023-03-21T14:50:55;17.80;;;11.48;;
57663;SDS011;43493;53.098;6.064;2023-03-21T14:53:26;15.57;;;11.70;;
57663;SDS011;43493;53.098;6.064;2023-03-21T14:58:32;19.67;;;13.20;;
57663;SDS011;43493;53.098;6.064;2023-03-21T15:01:02;19.53;;;12.67;;
57663;SDS011;43493;53.098;6.064;2023-03-21T15:03:29;16.93;;;12.00;;
57663;SDS011;43493;53.098;6.064;2023-03-21T15:05:56;18.97;;;12.77;;
57663;SDS011;43493;53.098;6.064;2023-03-21T15:08:24;19.53;;;13.47;;
57663;SDS011;43493;53.098;6.064;2023-03-21T15:10:58;19.57;;;12.97;;
57663;SDS011;43493;53.098;6.064;2023-03-21T15:15:54;19.83;;;12.20;;
57663;SDS011;43493;53.098;6.064;2023-03-21T15:18:27;16.77;;;12.87;;
57663;SDS011;43493;53.098;6.064;2023-03-21T15:20:57;17.97;;;12.77;;
57663;SDS011;43493;53.098;6.064;2023-03-21T15:23:39;18.93;;;12.83;;
57663;SDS011;43493;53.098;6.064;2023-03-21T15:26:16;16.93;;;13.33;;
57663;SDS011;43493;53.098;6.064;2023-03-21T15:28:45;17.03;;;13.07;;
57663;SDS011;43493;53.098;6.064;2023-03-21T15:31:14;17.67;;;13.57;;
57663;SDS011;43493;53.098;6.064;2023-03-21T15:33:48;22.83;;;14.00;;
57663;SDS011;43493;53.098;6.064;2023-03-21T15:36:26;16.47;;;12.70;;
57663;SDS011;43493;53.098;6.064;2023-03-21T15:38:56;20.63;;;15.17;;
57663;SDS011;43493;53.098;6.064;2023-03-21T15:41:26;19.70;;;14.77;;
57663;SDS011;43493;53.098;6.064;2023-03-21T15:46:45;17.50;;;12.83;;
57663;SDS011;43493;53.098;6.064;2023-03-21T15:49:23;25.13;;;14.77;;
57663;SDS011;43493;53.098;6.064;2023-03-21T15:54:26;19.47;;;13.60;;
57663;SDS011;43493;53.098;6.064;2023-03-21T15:56:58;18.70;;;12.60;;
57663;SDS011;43493;53.098;6.064;2023-03-21T15:59:32;19.60;;;13.47;;
57663;SDS011;43493;53.098;6.064;2023-03-21T16:01:59;22.27;;;14.33;;
57663;SDS011;43493;53.098;6.064;2023-03-21T16:04:25;20.03;;;14.27;;
57663;SDS011;43493;53.098;6.064;2023-03-21T16:06:55;15.40;;;13.33;;
57663;SDS011;43493;53.098;6.064;2023-03-21T16:09:23;20.93;;;15.07;;
57663;SDS011;43493;53.098;6.064;2023-03-21T16:11:50;22.00;;;15.33;;
57663;SDS011;43493;53.098;6.064;2023-03-21T16:14:21;21.17;;;15.67;;
57663;SDS011;43493;53.098;6.064;2023-03-21T16:16:48;21.23;;;15.13;;
57663;SDS011;43493;53.098;6.064;2023-03-21T16:19:15;18.33;;;13.27;;
57663;SDS011;43493;53.098;6.064;2023-03-21T16:21:41;19.60;;;14.93;;
57663;SDS011;43493;53.098;6.064;2023-03-21T16:24:07;20.73;;;15.27;;
57663;SDS011;43493;53.098;6.064;2023-03-21T16:26:35;25.70;;;16.93;;
57663;SDS011;43493;53.098;6.064;2023-03-21T16:29:03;23.27;;;16.40;;
57663;SDS011;43493;53.098;6.064;2023-03-21T16:31:30;22.17;;;16.30;;
57663;SDS011;43493;53.098;6.064;2023-03-21T16:33:57;22.30;;;15.73;;
57663;SDS011;43493;53.098;6.064;2023-03-21T16:36:24;23.50;;;15.13;;
57663;SDS011;43493;53.098;6.064;2023-03-21T16:38:53;18.90;;;16.37;;
57663;SDS011;43493;53.098;6.064;2023-03-21T16:41:23;22.43;;;16.50;;
57663;SDS011;43493;53.098;6.064;2023-03-21T16:43:50;24.67;;;16.57;;
57663;SDS011;43493;53.098;6.064;2023-03-21T16:46:23;21.30;;;16.30;;
57663;SDS011;43493;53.098;6.064;2023-03-21T16:48:54;26.07;;;18.27;;
57663;SDS011;43493;53.098;6.064;2023-03-21T16:51:22;25.50;;;19.47;;
57663;SDS011;43493;53.098;6.064;2023-03-21T16:53:53;26.57;;;20.10;;
57663;SDS011;43493;53.098;6.064;2023-03-21T16:56:23;22.50;;;20.10;;
57663;SDS011;43493;53.098;6.064;2023-03-21T16:58:57;26.40;;;19.80;;